Search for airport 
image banner adimage banner adimage banner ad
image banner ad

51PN - Helistop Ridc Industrial Park

Located in Blawnox, United States

ICAO - 51PN, IATA -

Data provided by Airmate  

General information

Coordinates: N40°29'57" W79°51'55"
Elevation is 986 feet MSL.
Magnetic variation is -08° East
View others Airports in Pennsylvania

Operational data

Special qualification required
Current time UTC:
Current local time:
Weather at : KAGC - Allegheny County ( 17 km )
METAR: KAGC 071253Z 33006KT 6SM -RA BR BKN043 BKN050 OVC060 07/06 A2987 RMK AO2 RAB14 SLP123 P0001 T00720056
TAF: KAGC 071133Z 0712/0812 VRB03KT P6SM -SHRA OVC040 FM071300 27004KT P6SM -SHRA OVC025 FM071500 28006KT 5SM -SHRA OVC010 TEMPO 0715/0717 OVC008 FM071900 31008G16KT P6SM VCSH BKN020 FM072100 31008KT P6SM BKN045 FM080500 25003KT P6SM VCSH OVC015
View NOTAMs / SUP AIP / TFR affecting this airport [VIEW]
Communications frequencies: [VIEW]

Runways:

Airport contact information

Address: Blawnox United States

Satellite view of 51PN